Time;durP1;ratioP1;P1;durP2;ratioP2;P2;SDS_P1;SDS_P2;PMS_P1;PMS_P2;Temp;Humidity;BMP_temperature;BMP_pressure;BME280_temperature;BME280_humidity;BME280_pressure;Samples;Min_cycle;Max_cycle;Signal;HPM_P1;HPM_P2
2023/06/25 00:04:22;;;;;;;;;;;;;;;18.64;99.21;101942.59;13052679;22;19990;-67
2023/06/25 00:09:24;;;;;;;;;;;;;;;18.75;97.19;101937.38;13052817;22;19977;-67
2023/06/25 00:14:27;;;;;;;;;;;;;;;18.69;97.30;101934.31;13051653;22;20403;-67
2023/06/25 00:19:29;;;;;;;;;;;;;;;18.54;97.14;101925.69;13025721;22;19938;-67
2023/06/25 00:24:31;;;;;;;;;;;;;;;18.46;99.85;101928.03;13052036;22;20328;-67
2023/06/25 00:29:34;;;;;;;;;;;;;;;18.57;99.09;101936.91;13055738;22;20271;-67
2023/06/25 00:34:41;;;;;;;;;;;;;;;18.24;100.00;101950.84;13055773;22;20318;-67
2023/06/25 00:39:44;;;;;;;;;;;;;;;18.27;100.00;101934.69;13056091;22;19997;-67
2023/06/25 00:44:46;;;;;;;;;;;;;;;18.25;100.00;101922.50;13028029;22;19919;-67
2023/06/25 00:49:48;;;;;;;;;;;;;;;18.26;99.19;101933.00;13056083;22;20005;-67
2023/06/25 00:54:50;;;;;;;;;;;;;;;18.18;100.00;101922.09;13055631;22;19923;-67
2023/06/25 00:59:53;;;;;;;;;;;;;;;18.41;100.00;101911.63;13056062;22;19990;-67
2023/06/25 01:05:03;;;;;;;;;;;;;;;18.08;100.00;101918.41;13027657;22;19922;-67
2023/06/25 01:10:06;;;;;;;;;;;;;;;18.15;100.00;101914.38;13028271;22;19998;-67
2023/06/25 01:15:11;;;;;;;;;;;;;;;18.06;100.00;101905.28;13054930;22;20403;-67
2023/06/25 01:20:13;;;;;;;;;;;;;;;18.06;100.00;101904.44;13055603;22;19973;-67
2023/06/25 01:25:16;;;;;;;;;;;;;;;18.06;100.00;101894.69;13055085;22;19942;-67
2023/06/25 01:30:20;;;;;;;;;;;;;;;18.22;100.00;101890.91;13028217;22;19997;-67
2023/06/25 01:35:22;;;;;;;;;;;;;;;17.94;100.00;101892.91;13055072;22;19989;-67
2023/06/25 01:40:25;;;;;;;;;;;;;;;17.78;100.00;101893.13;13054199;22;19930;-67
2023/06/25 01:45:27;;;;;;;;;;;;;;;17.86;100.00;101879.34;13054277;22;19991;-67
2023/06/25 01:50:29;;;;;;;;;;;;;;;17.93;100.00;101878.81;13027808;22;20036;-67
2023/06/25 01:55:31;;;;;;;;;;;;;;;17.81;100.00;101874.34;13054506;22;19919;-67
2023/06/25 02:00:36;;;;;;;;;;;;;;;17.87;100.00;101862.50;13054304;22;19926;-67
2023/06/25 02:05:38;;;;;;;;;;;;;;;17.75;100.00;101862.41;13027653;22;19919;-67
2023/06/25 02:10:41;;;;;;;;;;;;;;;17.74;100.00;101858.06;13054472;22;19998;-67
2023/06/25 02:15:43;;;;;;;;;;;;;;;17.76;100.00;101858.78;13053331;22;20364;-67
2023/06/25 02:20:45;;;;;;;;;;;;;;;17.73;100.00;101856.34;13053847;22;19931;-67
2023/06/25 02:25:49;;;;;;;;;;;;;;;17.71;100.00;101850.31;13053406;22;20331;-67
2023/06/25 02:30:51;;;;;;;;;;;;;;;17.68;100.00;101845.25;13053279;22;20366;-67
2023/06/25 02:35:54;;;;;;;;;;;;;;;17.55;100.00;101847.94;13053630;22;19940;-67
2023/06/25 02:40:56;;;;;;;;;;;;;;;17.67;100.00;101837.41;13026966;22;19918;-67
2023/06/25 02:45:58;;;;;;;;;;;;;;;17.57;100.00;101831.94;13053937;22;20209;-67
2023/06/25 02:51:00;;;;;;;;;;;;;;;17.64;100.00;101820.78;13053199;22;19951;-67
2023/06/25 02:56:03;;;;;;;;;;;;;;;17.58;100.00;101823.00;13052299;22;20431;-67
2023/06/25 03:01:05;;;;;;;;;;;;;;;17.60;100.00;101818.44;13026217;22;19922;-67
2023/06/25 03:06:07;;;;;;;;;;;;;;;17.49;100.00;101828.97;13053550;22;19919;-67
2023/06/25 03:11:09;;;;;;;;;;;;;;;17.53;100.00;101820.69;13026457;22;19925;-67
2023/06/25 03:16:11;;;;;;;;;;;;;;;17.51;100.00;101832.34;13025344;22;19990;-67
2023/06/25 03:21:14;;;;;;;;;;;;;;;17.56;100.00;101832.88;13025945;22;19918;-67
2023/06/25 03:26:16;;;;;;;;;;;;;;;17.60;100.00;101819.31;13025432;22;20300;-67
2023/06/25 03:31:18;;;;;;;;;;;;;;;17.43;100.00;101814.34;13026134;22;19919;-67
2023/06/25 03:36:21;;;;;;;;;;;;;;;17.52;100.00;101815.53;13052933;22;19926;-67
2023/06/25 03:41:23;;;;;;;;;;;;;;;17.47;100.00;101821.13;13052048;22;20271;-67
2023/06/25 03:46:25;;;;;;;;;;;;;;;17.45;100.00;101815.13;13053175;22;19994;-67
2023/06/25 03:51:28;;;;;;;;;;;;;;;17.51;100.00;101812.00;13052210;22;20419;-67
2023/06/25 03:56:30;;;;;;;;;;;;;;;17.53;100.00;101804.81;13051693;22;20316;-67
2023/06/25 04:01:32;;;;;;;;;;;;;;;17.61;100.00;101821.00;13054740;22;19949;-67
2023/06/25 04:06:34;;;;;;;;;;;;;;;17.70;100.00;101808.06;13029574;22;19945;-67
2023/06/25 04:11:36;;;;;;;;;;;;;;;17.74;100.00;101799.78;13029698;22;19919;-67
2023/06/25 04:16:39;;;;;;;;;;;;;;;17.72;100.00;101800.84;13055669;22;19954;-67
2023/06/25 04:21:41;;;;;;;;;;;;;;;17.70;100.00;101805.41;13056316;22;19990;-67
2023/06/25 04:26:43;;;;;;;;;;;;;;;17.80;100.00;101801.13;13055935;22;20239;-66
2023/06/25 04:31:45;;;;;;;;;;;;;;;17.95;100.00;101802.69;13055712;22;19923;-66
2023/06/25 04:36:48;;;;;;;;;;;;;;;17.98;100.00;101797.19;13056042;22;19923;-66
2023/06/25 04:41:50;;;;;;;;;;;;;;;18.04;100.00;101795.91;13056032;22;19942;-65
2023/06/25 04:46:52;;;;;;;;;;;;;;;18.22;100.00;101799.00;13055531;22;20225;-66
2023/06/25 04:51:54;;;;;;;;;;;;;;;18.32;100.00;101807.94;13054949;22;20324;-66
2023/06/25 04:56:56;;;;;;;;;;;;;;;18.41;100.00;101800.28;13054706;22;20310;-66
2023/06/25 05:01:59;;;;;;;;;;;;;;;18.62;100.00;101797.81;13055138;22;19993;-66
2023/06/25 05:07:01;;;;;;;;;;;;;;;18.78;100.00;101798.34;13028305;22;19919;-66
2023/06/25 05:12:03;;;;;;;;;;;;;;;18.86;100.00;101790.69;13028552;22;19968;-66
2023/06/25 05:17:06;;;;;;;;;;;;;;;19.12;100.00;101791.31;13054441;22;20362;-65
2023/06/25 05:22:08;;;;;;;;;;;;;;;19.16;100.00;101789.25;13054780;22;19925;-68
2023/06/25 05:27:10;;;;;;;;;;;;;;;19.19;100.00;101788.19;13055602;22;20046;-66
2023/06/25 05:32:12;;;;;;;;;;;;;;;19.28;100.00;101777.69;13054828;22;19989;-66
2023/06/25 05:37:15;;;;;;;;;;;;;;;19.60;100.00;101787.56;13054067;22;19923;-66
2023/06/25 05:42:17;;;;;;;;;;;;;;;19.55;100.00;101783.56;13028109;22;19985;-66
2023/06/25 05:47:19;;;;;;;;;;;;;;;19.52;100.00;101784.69;13054987;22;19918;-66
2023/06/25 05:52:22;;;;;;;;;;;;;;;19.83;100.00;101784.88;13054237;22;19922;-66
2023/06/25 05:57:25;;;;;;;;;;;;;;;19.95;100.00;101775.06;13053767;22;19990;-66
2023/06/25 06:02:27;;;;;;;;;;;;;;;20.16;99.25;101772.47;13053442;22;19994;-66
2023/06/25 06:07:29;;;;;;;;;;;;;;;20.20;97.89;101772.06;13053784;22;20288;-66
2023/06/25 06:12:32;;;;;;;;;;;;;;;20.42;94.87;101772.94;13027226;22;19926;-66
2023/06/25 06:17:34;;;;;;;;;;;;;;;20.47;94.72;101770.72;13053274;22;19990;-66
2023/06/25 06:22:36;;;;;;;;;;;;;;;20.68;91.58;101772.56;13053258;22;19930;-67
2023/06/25 06:27:38;;;;;;;;;;;;;;;20.63;93.15;101764.13;13051909;22;20332;-66
2023/06/25 06:32:41;;;;;;;;;;;;;;;21.03;90.32;101760.72;13050167;22;20316;-67
2023/06/25 06:37:43;;;;;;;;;;;;;;;21.24;88.88;101766.84;13052806;22;19919;-67
2023/06/25 06:42:45;;;;;;;;;;;;;;;21.29;88.74;101751.31;13052610;22;19919;-67
2023/06/25 06:47:47;;;;;;;;;;;;;;;21.47;87.18;101748.03;13052845;22;19982;-66
2023/06/25 06:52:50;;;;;;;;;;;;;;;21.64;86.86;101747.38;13047349;22;20396;-67
2023/06/25 06:57:52;;;;;;;;;;;;;;;21.99;83.96;101745.13;13043622;22;19934;-67
2023/06/25 07:02:56;;;;;;;;;;;;;;;22.33;82.10;101742.09;13025754;22;19995;-67
2023/06/25 07:07:59;;;;;;;;;;;;;;;22.52;78.67;101741.22;13050052;22;19964;-67
2023/06/25 07:13:01;;;;;;;;;;;;;;;22.78;79.34;101738.78;13052297;22;20219;-67
2023/06/25 07:18:03;;;;;;;;;;;;;;;23.08;76.37;101735.03;13025039;22;19926;-67
2023/06/25 07:23:06;;;;;;;;;;;;;;;23.79;75.71;101741.50;13052144;22;19981;-67
2023/06/25 07:28:11;;;;;;;;;;;;;;;24.29;69.54;101734.75;13025033;22;19973;-67
2023/06/25 07:33:13;;;;;;;;;;;;;;;24.85;67.34;101736.16;13051470;22;19926;-67
2023/06/25 07:38:15;;;;;;;;;;;;;;;25.38;65.69;101728.03;13027695;22;19989;-67
2023/06/25 07:43:18;;;;;;;;;;;;;;;25.91;64.46;101724.13;13056226;22;20440;-67
2023/06/25 07:48:20;;;;;;;;;;;;;;;26.26;61.30;101730.19;13057379;22;19981;-67
2023/06/25 07:53:22;;;;;;;;;;;;;;;26.49;58.79;101719.59;13056121;22;19997;-67
2023/06/25 07:58:24;;;;;;;;;;;;;;;26.48;59.07;101717.06;13056289;22;19946;-67
2023/06/25 08:03:27;;;;;;;;;;;;;;;26.90;57.47;101717.81;13055701;22;20379;-67
2023/06/25 08:08:29;;;;;;;;;;;;;;;26.46;57.83;101717.25;13055436;22;19927;-67
2023/06/25 08:13:31;;;;;;;;;;;;;;;27.51;57.50;101710.81;13054907;22;19919;-67
2023/06/25 08:18:33;;;;;;;;;;;;;;;27.86;55.64;101707.72;13056513;22;20005;-72
2023/06/25 08:23:36;;;;;;;;;;;;;;;28.08;52.83;101708.75;13056183;22;20424;-71
2023/06/25 08:28:38;;;;;;;;;;;;;;;28.58;53.65;101706.41;13028367;22;20317;-72
2023/06/25 08:33:40;;;;;;;;;;;;;;;28.81;52.08;101699.06;13056426;22;19918;-71
2023/06/25 08:38:42;;;;;;;;;;;;;;;28.94;52.63;101692.19;13055893;22;20248;-71
2023/06/25 08:43:45;;;;;;;;;;;;;;;28.03;51.42;101693.13;13056081;22;19925;-71
2023/06/25 08:48:47;;;;;;;;;;;;;;;29.68;50.36;101681.19;13055672;22;19925;-71
2023/06/25 08:53:49;;;;;;;;;;;;;;;29.49;48.61;101674.59;13028963;22;19919;-71
2023/06/25 08:58:52;;;;;;;;;;;;;;;29.38;50.30;101672.41;13055191;22;19919;-65
2023/06/25 09:03:54;;;;;;;;;;;;;;;29.63;47.15;101673.69;13028064;22;20002;-67
2023/06/25 09:08:57;;;;;;;;;;;;;;;30.19;47.05;101674.78;13054517;22;20330;-67
2023/06/25 09:14:00;;;;;;;;;;;;;;;29.76;46.19;101667.56;13054274;22;19945;-67
2023/06/25 09:19:02;;;;;;;;;;;;;;;28.89;46.62;101663.94;13054304;22;20346;-67
2023/06/25 09:24:14;;;;;;;;;;;;;;;29.77;44.58;101666.59;13053824;22;19919;-67
2023/06/25 09:29:16;;;;;;;;;;;;;;;31.04;46.65;101653.03;13053758;22;20322;-67
2023/06/25 09:34:19;;;;;;;;;;;;;;;30.89;45.41;101655.88;13054697;22;19926;-66
2023/06/25 09:39:21;;;;;;;;;;;;;;;31.48;47.14;101657.06;13027030;22;20384;-67
2023/06/25 09:44:23;;;;;;;;;;;;;;;31.09;45.39;101650.56;13054526;22;20005;-67
2023/06/25 09:49:27;;;;;;;;;;;;;;;31.79;44.05;101645.69;13027783;22;19946;-67
2023/06/25 09:54:29;;;;;;;;;;;;;;;32.17;44.26;101639.59;13054026;22;20318;-67
2023/06/25 09:59:31;;;;;;;;;;;;;;;31.39;46.06;101632.09;13026292;22;19994;-67
2023/06/25 10:04:34;;;;;;;;;;;;;;;31.81;45.79;101632.75;13053867;22;19925;-67
2023/06/25 10:09:36;;;;;;;;;;;;;;;32.40;45.14;101630.19;13054467;22;19923;-67
2023/06/25 10:14:39;;;;;;;;;;;;;;;32.45;44.99;101630.38;13054527;22;19925;-67
2023/06/25 10:19:51;;;;;;;;;;;;;;;32.62;42.59;101619.91;13026602;22;19942;-67
2023/06/25 10:24:53;;;;;;;;;;;;;;;33.24;42.04;101609.34;13053497;22;19919;-67
2023/06/25 10:29:56;;;;;;;;;;;;;;;33.26;40.83;101611.84;13054087;22;20002;-68
2023/06/25 10:34:59;;;;;;;;;;;;;;;34.56;40.79;101604.75;13053358;22;19919;-68
2023/06/25 10:40:01;;;;;;;;;;;;;;;35.04;38.35;101594.94;13053220;22;20239;-68
2023/06/25 10:45:04;;;;;;;;;;;;;;;35.06;38.94;101582.75;13053923;22;19945;-68
2023/06/25 10:50:06;;;;;;;;;;;;;;;35.31;39.98;101579.88;13026827;22;19958;-69
2023/06/25 10:55:08;;;;;;;;;;;;;;;35.76;38.19;101583.94;13053194;22;19919;-68
2023/06/25 11:00:11;;;;;;;;;;;;;;;35.34;38.19;101581.31;13052877;22;19918;-68
2023/06/25 11:05:14;;;;;;;;;;;;;;;35.02;36.74;101578.00;13053591;22;19926;-68
2023/06/25 11:10:16;;;;;;;;;;;;;;;35.21;36.88;101573.31;13052292;22;20224;-64
2023/06/25 11:15:18;;;;;;;;;;;;;;;36.31;37.17;101562.78;13025700;22;20350;-64
2023/06/25 11:20:24;;;;;;;;;;;;;;;35.42;37.88;101566.50;13026421;22;19990;-64
2023/06/25 11:25:27;;;;;;;;;;;;;;;36.11;33.89;101563.16;13026450;22;19989;-64
2023/06/25 11:30:29;;;;;;;;;;;;;;;36.29;32.65;101552.09;13053240;22;19925;-64
2023/06/25 11:35:32;;;;;;;;;;;;;;;37.20;35.42;101553.25;13053306;22;19972;-64
2023/06/25 11:40:35;;;;;;;;;;;;;;;36.20;34.65;101561.72;13052359;22;19963;-65
2023/06/25 11:45:43;;;;;;;;;;;;;;;36.14;33.47;101538.97;13052411;22;20314;-64
2023/06/25 11:50:46;;;;;;;;;;;;;;;36.73;33.57;101541.50;13025997;22;19923;-64
2023/06/25 11:55:48;;;;;;;;;;;;;;;37.12;32.57;101538.06;13025301;22;20378;-64
2023/06/25 12:00:50;;;;;;;;;;;;;;;37.14;33.76;101530.47;13053020;22;19926;-65
2023/06/25 12:05:52;;;;;;;;;;;;;;;36.51;35.03;101518.72;13052996;22;19953;-64
2023/06/25 12:10:55;;;;;;;;;;;;;;;37.03;33.36;101521.28;13052418;22;19919;-64
2023/06/25 12:15:57;;;;;;;;;;;;;;;36.63;32.88;101523.06;13025017;22;19947;-64
2023/06/25 12:20:59;;;;;;;;;;;;;;;35.71;34.37;101516.53;13052909;22;20244;-64
2023/06/25 12:26:01;;;;;;;;;;;;;;;36.39;32.83;101510.59;13055914;22;19957;-64
2023/06/25 12:31:04;;;;;;;;;;;;;;;35.95;34.94;101508.34;13056411;22;19966;-63
2023/06/25 12:36:06;;;;;;;;;;;;;;;36.25;32.89;101491.00;13056459;22;19953;-64
2023/06/25 12:41:08;;;;;;;;;;;;;;;35.65;34.11;101486.72;13056409;22;19926;-64
2023/06/25 12:46:10;;;;;;;;;;;;;;;35.14;33.39;101478.19;13056295;22;19991;-64
2023/06/25 12:51:13;;;;;;;;;;;;;;;35.80;35.13;101473.44;13056096;22;19961;-64
2023/06/25 12:56:15;;;;;;;;;;;;;;;35.94;35.75;101473.16;13055277;22;20346;-63
2023/06/25 13:01:17;;;;;;;;;;;;;;;36.31;33.13;101460.00;13055268;22;19942;-64
2023/06/25 13:06:20;;;;;;;;;;;;;;;35.80;33.97;101478.06;13055983;22;19926;-63
2023/06/25 13:11:22;;;;;;;;;;;;;;;35.78;32.95;101453.78;13054753;22;20347;-64
2023/06/25 13:16:24;;;;;;;;;;;;;;;35.44;34.31;101448.16;13054959;22;20414;-64
2023/06/25 13:21:27;;;;;;;;;;;;;;;36.28;33.69;101446.03;13054781;22;19961;-64
2023/06/25 13:26:29;;;;;;;;;;;;;;;36.35;33.59;101443.97;13028452;22;19925;-64
2023/06/25 13:31:31;;;;;;;;;;;;;;;36.00;33.47;101443.06;13054152;22;19966;-64
2023/06/25 13:36:33;;;;;;;;;;;;;;;36.52;34.38;101433.13;13054176;22;19922;-64
2023/06/25 13:41:36;;;;;;;;;;;;;;;34.62;33.08;101435.28;13055140;22;19986;-64
2023/06/25 13:46:38;;;;;;;;;;;;;;;35.84;34.48;101422.03;13055084;22;19982;-64
2023/06/25 13:51:40;;;;;;;;;;;;;;;36.97;32.04;101411.22;13054855;22;19926;-64
2023/06/25 13:56:44;;;;;;;;;;;;;;;35.42;35.95;101417.59;13027031;22;20303;-64
2023/06/25 14:01:46;;;;;;;;;;;;;;;35.60;33.11;101411.16;13054744;22;19926;-63
2023/06/25 14:06:50;;;;;;;;;;;;;;;35.39;32.84;101409.09;13053883;22;19997;-64
2023/06/25 14:11:52;;;;;;;;;;;;;;;35.63;33.81;101412.59;13053876;22;19923;-64
2023/06/25 14:16:54;;;;;;;;;;;;;;;36.14;34.01;101402.72;13054423;22;19923;-63
2023/06/25 14:21:56;;;;;;;;;;;;;;;36.64;31.77;101401.13;13053591;22;20248;-63
2023/06/25 14:26:59;;;;;;;;;;;;;;;36.77;32.76;101391.84;13053468;22;20379;-63
2023/06/25 14:32:01;;;;;;;;;;;;;;;36.05;32.20;101376.94;13053217;22;20321;-64
2023/06/25 14:37:03;;;;;;;;;;;;;;;36.13;33.80;101372.97;13053264;22;20336;-64
2023/06/25 14:42:05;;;;;;;;;;;;;;;36.77;31.71;101383.66;13053896;22;19925;-64
2023/06/25 14:47:09;;;;;;;;;;;;;;;35.80;32.52;101371.84;13053604;22;19926;-63
2023/06/25 14:52:11;;;;;;;;;;;;;;;35.26;35.53;101377.53;13053601;22;19986;-64
2023/06/25 14:57:13;;;;;;;;;;;;;;;35.61;35.04;101368.41;13053685;22;19919;-64
2023/06/25 15:02:15;;;;;;;;;;;;;;;36.48;34.90;101370.06;13052775;22;19919;-64
2023/06/25 15:07:18;;;;;;;;;;;;;;;34.71;35.06;101374.03;13053567;22;20016;-63
2023/06/25 15:12:20;;;;;;;;;;;;;;;36.41;33.08;101366.66;13052729;22;19918;-64
2023/06/25 15:17:23;;;;;;;;;;;;;;;35.87;32.68;101358.88;13052630;22;19950;-64
2023/06/25 15:22:25;;;;;;;;;;;;;;;35.69;34.44;101338.09;13053357;22;19925;-63
2023/06/25 15:27:27;;;;;;;;;;;;;;;35.76;33.30;101344.28;13026294;22;19942;-64
2023/06/25 15:32:29;;;;;;;;;;;;;;;35.30;33.98;101340.59;13053103;22;19926;-63
2023/06/25 15:37:32;;;;;;;;;;;;;;;35.75;35.15;101341.78;13053110;22;19923;-63
2023/06/25 15:42:34;;;;;;;;;;;;;;;35.98;33.79;101330.78;13025253;22;20359;-63
2023/06/25 15:47:36;;;;;;;;;;;;;;;35.84;35.66;101326.69;13052254;22;20322;-63
2023/06/25 15:52:38;;;;;;;;;;;;;;;35.25;35.39;101324.97;13052873;22;19954;-64
2023/06/25 15:57:41;;;;;;;;;;;;;;;35.62;33.63;101318.34;13055335;22;19950;-64
2023/06/25 16:02:43;;;;;;;;;;;;;;;35.41;33.79;101317.97;13057098;22;20002;-64
2023/06/25 16:07:45;;;;;;;;;;;;;;;34.95;35.29;101320.53;13056123;22;19919;-64
2023/06/25 16:12:48;;;;;;;;;;;;;;;34.35;34.27;101305.22;13055799;22;20384;-63
2023/06/25 16:17:50;;;;;;;;;;;;;;;35.04;34.63;101301.13;13056796;22;19987;-64
2023/06/25 16:22:52;;;;;;;;;;;;;;;33.99;34.55;101300.75;13055959;22;19922;-64
2023/06/25 16:27:54;;;;;;;;;;;;;;;34.23;34.49;101296.25;13055879;22;20009;-63
2023/06/25 16:32:57;;;;;;;;;;;;;;;34.57;36.68;101282.91;13056534;22;19942;-63
2023/06/25 16:37:59;;;;;;;;;;;;;;;34.28;36.13;101280.06;13055620;22;19973;-64
2023/06/25 16:43:01;;;;;;;;;;;;;;;33.34;36.57;101272.41;13056357;22;19918;-63
2023/06/25 16:48:04;;;;;;;;;;;;;;;33.51;37.26;101276.13;13056299;22;19926;-63
2023/06/25 16:53:06;;;;;;;;;;;;;;;33.54;38.40;101268.59;13056119;22;19954;-63
2023/06/25 16:58:08;;;;;;;;;;;;;;;33.58;38.31;101262.47;13056069;22;19984;-63
2023/06/25 17:03:10;;;;;;;;;;;;;;;33.64;38.92;101264.28;13055204;22;20243;-63
2023/06/25 17:08:13;;;;;;;;;;;;;;;33.20;39.50;101260.06;13054886;22;20332;-63
2023/06/25 17:13:15;;;;;;;;;;;;;;;33.25;38.91;101262.91;13054700;22;19961;-63
2023/06/25 17:18:17;;;;;;;;;;;;;;;33.09;38.55;101251.59;13054886;22;19969;-63
2023/06/25 17:23:20;;;;;;;;;;;;;;;32.68;40.62;101257.69;13055576;22;19944;-63
2023/06/25 17:28:22;;;;;;;;;;;;;;;32.71;39.45;101251.81;13055360;22;19949;-63
2023/06/25 17:33:24;;;;;;;;;;;;;;;32.49;41.51;101251.38;13054423;22;19973;-63
2023/06/25 17:38:26;;;;;;;;;;;;;;;32.10;43.40;101248.78;13055283;22;19987;-63
2023/06/25 17:43:29;;;;;;;;;;;;;;;31.45;45.12;101254.34;13055127;22;19919;-63
2023/06/25 17:48:31;;;;;;;;;;;;;;;31.05;47.44;101241.84;13055025;22;19926;-63
2023/06/25 17:53:35;;;;;;;;;;;;;;;30.94;48.19;101250.59;13054031;22;20396;-63
2023/06/25 17:58:37;;;;;;;;;;;;;;;30.69;50.13;101255.81;13054016;22;19977;-63
2023/06/25 18:03:39;;;;;;;;;;;;;;;30.44;51.06;101253.75;13054746;22;19925;-63
2023/06/25 18:08:42;;;;;;;;;;;;;;;30.19;51.38;101248.97;13054635;22;19926;-63
2023/06/25 18:13:44;;;;;;;;;;;;;;;29.64;54.18;101254.47;13053552;22;19958;-63
2023/06/25 18:18:47;;;;;;;;;;;;;;;29.45;56.69;101253.38;13053252;22;20332;-62
2023/06/25 18:23:49;;;;;;;;;;;;;;;29.14;58.03;101243.03;13027353;22;19982;-63
2023/06/25 18:28:54;;;;;;;;;;;;;;;29.00;58.59;101241.31;13026890;22;19954;-62
2023/06/25 18:33:56;;;;;;;;;;;;;;;28.71;59.94;101235.13;13053937;22;19998;-62
2023/06/25 18:38:58;;;;;;;;;;;;;;;28.41;62.47;101229.09;13054815;22;19942;-63
2023/06/25 18:44:01;;;;;;;;;;;;;;;28.13;61.95;101233.44;13053983;22;19978;-63
2023/06/25 18:49:03;;;;;;;;;;;;;;;27.98;63.32;101229.97;13053917;22;19926;-63
2023/06/25 18:54:05;;;;;;;;;;;;;;;27.88;63.46;101222.19;13052902;22;20332;-63
2023/06/25 18:59:08;;;;;;;;;;;;;;;27.66;64.69;101220.53;13052926;22;20304;-63
2023/06/25 19:04:12;;;;;;;;;;;;;;;27.40;65.15;101219.19;13052793;22;20248;-63
2023/06/25 19:09:15;;;;;;;;;;;;;;;27.00;67.35;101214.13;13053527;22;19957;-63
2023/06/25 19:14:17;;;;;;;;;;;;;;;26.80;67.67;101213.03;13052498;22;19954;-63
2023/06/25 19:19:21;;;;;;;;;;;;;;;26.60;68.00;101210.03;13024987;22;20400;-63
2023/06/25 19:24:24;;;;;;;;;;;;;;;26.47;68.59;101214.16;13053235;22;19919;-62
2023/06/25 19:29:27;;;;;;;;;;;;;;;26.40;68.30;101201.69;13052977;22;19997;-63
2023/06/25 19:34:29;;;;;;;;;;;;;;;26.03;70.24;101200.66;13056850;22;20351;-63
2023/06/25 19:39:31;;;;;;;;;;;;;;;25.86;70.02;101208.78;13057644;22;19986;-63
2023/06/25 19:44:34;;;;;;;;;;;;;;;25.62;70.53;101203.59;13056767;22;20252;-63
2023/06/25 19:49:36;;;;;;;;;;;;;;;25.30;71.27;101206.28;13057482;22;19947;-62
2023/06/25 19:54:38;;;;;;;;;;;;;;;25.22;71.28;101208.97;13057204;22;19925;-62
2023/06/25 19:59:40;;;;;;;;;;;;;;;24.94;72.30;101205.91;13056479;22;19919;-62
2023/06/25 20:04:43;;;;;;;;;;;;;;;25.02;72.85;101206.69;13057165;22;20017;-62
2023/06/25 20:09:45;;;;;;;;;;;;;;;24.80;73.98;101204.78;13056811;22;19927;-63
2023/06/25 20:14:47;;;;;;;;;;;;;;;24.78;72.12;101212.13;13055983;22;19993;-62
2023/06/25 20:19:49;;;;;;;;;;;;;;;24.47;74.60;101207.47;13056004;22;19997;-62
2023/06/25 20:24:51;;;;;;;;;;;;;;;24.45;74.68;101213.00;13056779;22;19923;-63
2023/06/25 20:29:54;;;;;;;;;;;;;;;24.20;77.24;101220.22;13056637;22;19919;-62
2023/06/25 20:34:56;;;;;;;;;;;;;;;24.06;77.92;101216.38;13056499;22;19994;-62
2023/06/25 20:39:58;;;;;;;;;;;;;;;24.11;78.12;101215.88;13056486;22;19943;-62
2023/06/25 20:45:00;;;;;;;;;;;;;;;24.07;77.53;101209.16;13055235;22;19919;-63
2023/06/25 20:50:03;;;;;;;;;;;;;;;23.91;79.06;101213.50;13055483;22;20354;-62
2023/06/25 20:55:05;;;;;;;;;;;;;;;23.88;79.42;101215.69;13055435;22;19923;-63
2023/06/25 21:00:08;;;;;;;;;;;;;;;23.81;77.25;101210.13;13055264;22;20292;-64
2023/06/25 21:05:10;;;;;;;;;;;;;;;23.74;78.87;101212.63;13055939;22;19965;-64
2023/06/25 21:10:12;;;;;;;;;;;;;;;23.42;82.52;101208.03;13054829;22;19994;-64
2023/06/25 21:15:14;;;;;;;;;;;;;;;23.52;81.08;101203.41;13055770;22;19993;-63
2023/06/25 21:20:17;;;;;;;;;;;;;;;23.49;79.59;101202.88;13027840;22;20319;-64
2023/06/25 21:25:19;;;;;;;;;;;;;;;23.39;81.64;101203.03;13055572;22;19919;-64
2023/06/25 21:30:21;;;;;;;;;;;;;;;23.56;77.60;101198.56;13054773;22;20359;-64
2023/06/25 21:35:23;;;;;;;;;;;;;;;23.33;80.36;101201.00;13055336;22;19925;-64
2023/06/25 21:40:26;;;;;;;;;;;;;;;23.18;81.68;101195.44;13054570;22;19919;-65
2023/06/25 21:45:28;;;;;;;;;;;;;;;23.09;83.24;101202.56;13054526;22;20368;-67
2023/06/25 21:50:30;;;;;;;;;;;;;;;23.15;82.36;101199.28;13055101;22;19972;-64
2023/06/25 21:55:32;;;;;;;;;;;;;;;22.98;83.86;101195.66;13054379;22;19958;-63
2023/06/25 22:00:35;;;;;;;;;;;;;;;23.04;84.45;101204.03;13054017;22;20408;-63
2023/06/25 22:05:37;;;;;;;;;;;;;;;22.98;81.96;101197.47;13054644;22;19919;-63
2023/06/25 22:10:39;;;;;;;;;;;;;;;22.92;83.69;101193.63;13054258;22;19925;-63
2023/06/25 22:15:41;;;;;;;;;;;;;;;22.91;84.06;101194.59;13053573;22;20244;-63
2023/06/25 22:20:44;;;;;;;;;;;;;;;22.77;85.58;101193.38;13054455;22;19986;-63
2023/06/25 22:25:46;;;;;;;;;;;;;;;22.84;79.27;101185.56;13053584;22;20331;-63
2023/06/25 22:30:48;;;;;;;;;;;;;;;22.89;78.32;101174.41;13053470;22;20310;-63
2023/06/25 22:35:50;;;;;;;;;;;;;;;22.98;81.83;101178.78;13054026;22;20003;-63
2023/06/25 22:40:54;;;;;;;;;;;;;;;22.85;83.19;101175.72;13054080;22;19919;-63
2023/06/25 22:45:56;;;;;;;;;;;;;;;22.61;84.07;101182.59;13054000;22;19986;-63
2023/06/25 22:51:02;;;;;;;;;;;;;;;22.65;85.09;101170.63;13053738;22;19926;-63
2023/06/25 22:56:05;;;;;;;;;;;;;;;22.57;85.29;101167.91;13052974;22;20364;-63
2023/06/25 23:01:09;;;;;;;;;;;;;;;22.48;86.67;101164.38;13052941;22;19970;-63
2023/06/25 23:06:12;;;;;;;;;;;;;;;22.50;85.61;101157.03;13052688;22;20399;-64
2023/06/25 23:11:14;;;;;;;;;;;;;;;22.50;84.68;101153.53;13052984;22;19950;-64
2023/06/25 23:16:22;;;;;;;;;;;;;;;22.52;84.05;101151.53;13052681;22;19970;-63
2023/06/25 23:21:25;;;;;;;;;;;;;;;22.23;86.82;101155.31;13053450;22;19923;-63
2023/06/25 23:26:27;;;;;;;;;;;;;;;22.32;86.45;101140.25;13052790;22;19926;-70
2023/06/25 23:31:29;;;;;;;;;;;;;;;21.97;88.85;101142.81;13053309;22;19950;-70
2023/06/25 23:36:32;;;;;;;;;;;;;;;22.27;85.36;101143.34;13053359;22;19926;-70
2023/06/25 23:41:34;;;;;;;;;;;;;;;22.11;85.88;101138.75;13053263;22;20002;-69
2023/06/25 23:46:36;;;;;;;;;;;;;;;21.95;88.59;101134.09;13053206;22;19937;-69
2023/06/25 23:51:38;;;;;;;;;;;;;;;22.00;88.54;101134.47;13053068;22;19926;-70
2023/06/25 23:56:40;;;;;;;;;;;;;;;21.87;89.70;101124.22;13052361;22;19918;-70
